Terminal Aerodrome Forecast
Issued by NWS Tuscon, AZ

Home | Current Version | Previous Version | Text Only | Print | Product List | Glossary On
Versions: 1 2 3 4 5 6 7 8 9 10 11 12 13
000
FTUS45 KTWC 252320
TAFTUS
TAF
KTUS 252320Z 2600/2624 24015G25KT P6SM SCT100 SCT250
     FM260300 28013KT P6SM FEW040 SCT060 BKN120
     FM260700 VRB05KT P6SM VCSH SCT040 BKN060
     FM261700 26010G18KT P6SM SCT060 BKN120=

USA.gov is the U.S. government's official web portal to all federal, state and local government web resources and services.